createdAt,value
2022-10-22T00:01:59.872Z,43.13
2022-10-22T00:04:48.701Z,43.36
2022-10-22T00:07:37.400Z,43.26
2022-10-22T00:10:27.295Z,43.05
2022-10-22T00:13:16.043Z,43.25
2022-10-22T00:16:04.462Z,43.38
2022-10-22T00:18:53.173Z,43.19
2022-10-22T00:21:41.605Z,43.18
2022-10-22T00:24:31.613Z,43.38
2022-10-22T00:27:21.478Z,43.19
2022-10-22T00:30:10.728Z,43.41
2022-10-22T00:32:59.175Z,43.41
2022-10-22T00:35:48.780Z,43.31
2022-10-22T00:38:39.674Z,43.20
2022-10-22T00:41:30.771Z,43.62
2022-10-22T00:44:56.697Z,43.37
2022-10-22T00:47:51.620Z,43.53
2022-10-22T00:50:42.910Z,43.26
2022-10-22T00:53:33.929Z,43.37
2022-10-22T00:56:22.358Z,43.38
2022-10-22T00:59:12.284Z,43.46
2022-10-22T01:02:00.840Z,43.49
2022-10-22T01:04:50.625Z,43.30
2022-10-22T01:07:43.598Z,43.42
2022-10-22T01:10:47.601Z,43.53
2022-10-22T01:13:43.462Z,43.43
2022-10-22T01:16:37.100Z,43.44
2022-10-22T01:19:35.380Z,43.46
2022-10-22T01:22:30.391Z,43.24
2022-10-22T01:25:23.026Z,43.28
2022-10-22T01:28:19.427Z,43.40
2022-10-22T01:31:10.666Z,43.59
2022-10-22T01:34:01.033Z,43.23
2022-10-22T01:36:49.850Z,43.37
2022-10-22T01:39:38.533Z,43.30
2022-10-22T01:42:27.173Z,43.47
2022-10-22T01:45:16.560Z,43.39
2022-10-22T01:48:17.223Z,43.23
2022-10-22T01:51:26.276Z,43.37
2022-10-22T01:54:23.488Z,43.43
2022-10-22T01:57:18.549Z,43.46
2022-10-22T02:00:09.102Z,43.25
2022-10-22T02:03:01.745Z,43.58
2022-10-22T02:05:53.610Z,43.52
2022-10-22T02:08:42.781Z,43.57
2022-10-22T02:11:31.520Z,43.37
2022-10-22T02:14:21.038Z,43.49
2022-10-22T02:17:10.659Z,43.54
2022-10-22T02:20:00.927Z,43.43
2022-10-22T02:22:51.209Z,43.32
2022-10-22T02:25:42.728Z,43.22
2022-10-22T02:28:36.017Z,43.42
2022-10-22T02:31:26.261Z,43.45
2022-10-22T02:34:17.455Z,43.43
2022-10-22T02:37:06.330Z,43.30
2022-10-22T02:39:57.262Z,43.46
2022-10-22T02:42:47.984Z,43.30
2022-10-22T02:45:37.019Z,43.43
2022-10-22T02:48:25.379Z,43.29
2022-10-22T02:51:13.785Z,43.25
2022-10-22T02:54:02.259Z,43.40
2022-10-22T02:56:52.052Z,43.48
2022-10-22T02:59:40.460Z,43.53
2022-10-22T03:02:28.910Z,43.41
2022-10-22T03:05:17.634Z,43.32
2022-10-22T03:08:06.457Z,43.26
2022-10-22T03:10:54.893Z,43.32
2022-10-22T03:13:44.647Z,43.31
2022-10-22T03:16:33.156Z,43.48
2022-10-22T03:19:21.594Z,43.47
2022-10-22T03:22:13.400Z,43.46
2022-10-22T03:25:07.777Z,43.23
2022-10-22T03:27:57.083Z,43.39
2022-10-22T03:30:46.921Z,43.38
2022-10-22T03:33:35.447Z,43.39
2022-10-22T03:36:23.988Z,43.54
2022-10-22T03:39:14.297Z,43.25
2022-10-22T03:42:03.235Z,43.53
2022-10-22T03:44:51.656Z,43.33
2022-10-22T03:47:41.804Z,43.24
2022-10-22T03:50:30.731Z,43.42
2022-10-22T03:53:19.104Z,43.24
2022-10-22T03:56:10.253Z,43.47
2022-10-22T03:58:59.880Z,43.48
2022-10-22T04:01:48.270Z,43.40
2022-10-22T04:04:38.765Z,43.36
2022-10-22T04:07:27.203Z,43.36
2022-10-22T04:10:15.678Z,43.47
2022-10-22T04:13:04.078Z,43.41
2022-10-22T04:15:52.854Z,43.32
2022-10-22T04:18:42.149Z,43.45
2022-10-22T04:21:33.017Z,43.57
2022-10-22T04:24:23.898Z,43.47
2022-10-22T04:27:12.305Z,43.47
2022-10-22T04:30:00.719Z,43.57
2022-10-22T04:32:49.105Z,43.46
2022-10-22T04:35:40.565Z,43.38
2022-10-22T04:38:30.328Z,43.42
2022-10-22T04:41:20.564Z,43.38
2022-10-22T04:44:13.627Z,43.31
2022-10-22T04:47:05.486Z,43.32
2022-10-22T04:49:53.911Z,43.45
2022-10-22T04:52:42.427Z,43.60
2022-10-22T04:55:32.211Z,43.53
2022-10-22T04:58:20.585Z,43.27
2022-10-22T05:01:13.402Z,43.25
2022-10-22T05:04:03.141Z,43.25
2022-10-22T05:06:52.623Z,43.72
2022-10-22T05:09:41.276Z,43.57
2022-10-22T05:12:31.066Z,43.49
2022-10-22T05:15:19.474Z,43.50
2022-10-22T05:18:07.850Z,43.31
2022-10-22T05:20:56.282Z,43.53
2022-10-22T05:23:44.781Z,43.31
2022-10-22T05:26:33.209Z,43.47
2022-10-22T05:29:23.577Z,43.53
2022-10-22T05:32:12.009Z,43.61
2022-10-22T05:35:00.392Z,43.38
2022-10-22T05:37:48.847Z,43.46
2022-10-22T05:40:37.288Z,43.64
2022-10-22T05:43:25.786Z,43.49
2022-10-22T05:46:21.243Z,43.48
2022-10-22T05:49:14.660Z,43.43
2022-10-22T05:52:03.180Z,43.24
2022-10-22T05:54:51.620Z,43.40
2022-10-22T05:57:41.053Z,43.72
2022-10-22T06:00:29.503Z,43.52
2022-10-22T06:03:19.307Z,43.40
2022-10-22T06:06:17.474Z,43.55
2022-10-22T06:09:08.564Z,43.69
2022-10-22T06:11:57.973Z,43.39
2022-10-22T06:14:46.595Z,43.50
2022-10-22T06:17:36.478Z,43.43
2022-10-22T06:20:26.365Z,43.56
2022-10-22T06:23:15.611Z,43.41
2022-10-22T06:26:04.445Z,43.42
2022-10-22T06:28:52.925Z,43.61
2022-10-22T06:31:41.396Z,43.64
2022-10-22T06:34:29.763Z,43.53
2022-10-22T06:37:19.640Z,43.47
2022-10-22T06:40:09.314Z,43.55
2022-10-22T06:42:57.734Z,43.52
2022-10-22T06:45:46.135Z,43.53
2022-10-22T06:48:35.965Z,43.39
2022-10-22T06:51:24.771Z,43.45
2022-10-22T06:54:14.523Z,43.60
2022-10-22T06:57:02.951Z,43.74
2022-10-22T06:59:51.488Z,43.32
2022-10-22T07:02:40.207Z,43.57
2022-10-22T07:05:28.902Z,43.50
2022-10-22T07:08:17.299Z,43.36
2022-10-22T07:11:11.931Z,43.48
2022-10-22T07:14:01.388Z,43.33
2022-10-22T07:16:49.949Z,43.60
2022-10-22T07:19:38.350Z,43.41
2022-10-22T07:22:26.911Z,43.41
2022-10-22T07:25:15.409Z,43.80
2022-10-22T07:28:06.601Z,43.68
2022-10-22T07:30:57.329Z,43.78
2022-10-22T07:33:45.853Z,43.75
2022-10-22T07:36:34.475Z,43.60
2022-10-22T07:39:23.161Z,43.46
2022-10-22T07:42:14.562Z,42.96
2022-10-22T07:45:04.815Z,42.67
2022-10-22T07:47:53.288Z,42.69
2022-10-22T07:50:41.779Z,42.82
2022-10-22T07:53:30.199Z,42.76
2022-10-22T07:56:18.733Z,42.85
2022-10-22T07:59:07.203Z,42.94
2022-10-22T08:01:56.913Z,42.98
2022-10-22T08:04:45.366Z,43.47
2022-10-22T08:07:33.887Z,43.02
2022-10-22T08:10:22.351Z,43.20
2022-10-22T08:13:10.794Z,42.91
2022-10-22T08:16:00.579Z,42.82
2022-10-22T08:18:51.481Z,42.73
2022-10-22T08:21:39.931Z,42.93
2022-10-22T08:24:28.418Z,43.14
2022-10-22T08:27:16.783Z,42.85
2022-10-22T08:30:06.333Z,43.00
2022-10-22T08:32:55.145Z,43.10
2022-10-22T08:35:49.514Z,43.06
2022-10-22T08:38:37.943Z,42.90
2022-10-22T08:41:26.613Z,43.08
2022-10-22T08:44:31.787Z,43.18
2022-10-22T08:47:32.669Z,43.13
2022-10-22T08:50:28.095Z,42.94
2022-10-22T08:53:20.390Z,43.20
2022-10-22T08:56:08.852Z,43.07
2022-10-22T08:59:01.458Z,42.99
2022-10-22T09:01:51.650Z,43.27
2022-10-22T09:04:45.210Z,43.05
2022-10-22T09:07:36.658Z,42.96
2022-10-22T09:10:31.544Z,43.18
2022-10-22T09:13:22.175Z,43.18
2022-10-22T09:16:17.293Z,43.53
2022-10-22T09:19:14.363Z,43.40
2022-10-22T09:22:09.696Z,43.49
2022-10-22T09:25:01.515Z,43.40
2022-10-22T09:27:52.552Z,43.63
2022-10-22T09:30:41.681Z,43.23
2022-10-22T09:33:33.706Z,43.44
2022-10-22T09:36:24.163Z,44.18
2022-10-22T09:39:27.442Z,44.45
2022-10-22T09:42:18.355Z,44.26
2022-10-22T09:45:08.965Z,44.56
2022-10-22T09:48:11.222Z,44.78
2022-10-22T09:51:04.925Z,44.58
2022-10-22T09:53:58.641Z,44.18
2022-10-22T09:56:55.864Z,44.78
2022-10-22T09:59:45.208Z,44.67
2022-10-22T10:02:38.988Z,45.12
2022-10-22T10:05:29.595Z,45.76
2022-10-22T10:08:18.906Z,45.68
2022-10-22T10:11:12.684Z,45.52
2022-10-22T10:14:09.534Z,45.91
2022-10-22T10:17:00.137Z,45.88
2022-10-22T10:20:01.454Z,45.86
2022-10-22T10:22:56.977Z,45.86
2022-10-22T10:25:51.914Z,45.91
2022-10-22T10:28:49.411Z,46.06
2022-10-22T10:31:45.173Z,46.15
2022-10-22T10:34:42.186Z,46.25
2022-10-22T10:37:35.696Z,46.38
2022-10-22T10:40:36.410Z,46.25
2022-10-22T10:43:31.464Z,46.04
2022-10-22T10:46:25.175Z,46.13
2022-10-22T10:49:19.841Z,46.19
2022-10-22T10:52:18.875Z,46.14
2022-10-22T10:55:21.834Z,46.22
2022-10-22T10:58:22.115Z,46.09
2022-10-22T11:01:17.821Z,46.13
2022-10-22T11:04:26.461Z,46.46
2022-10-22T11:07:33.564Z,46.30
2022-10-22T11:10:29.871Z,46.42
2022-10-22T11:13:24.584Z,46.66
2022-10-22T11:16:18.498Z,46.63
2022-10-22T11:19:11.298Z,46.57
2022-10-22T11:22:05.227Z,46.68
2022-10-22T11:24:57.049Z,46.76
2022-10-22T11:27:50.579Z,46.60
2022-10-22T11:30:39.955Z,46.87
2022-10-22T11:33:32.545Z,46.42
2022-10-22T11:36:23.082Z,46.74
2022-10-22T11:39:30.546Z,46.58
2022-10-22T11:42:21.732Z,46.49
2022-10-22T11:45:30.285Z,46.04
2022-10-22T11:48:20.633Z,46.21
2022-10-22T11:51:31.373Z,46.07
2022-10-22T11:54:32.611Z,45.92
2022-10-22T11:57:24.319Z,45.23
2022-10-22T12:00:41.563Z,45.13
2022-10-22T12:03:41.107Z,44.87
2022-10-22T12:06:30.300Z,44.93
2022-10-22T12:09:20.500Z,45.10
2022-10-22T12:12:16.415Z,45.16
2022-10-22T12:15:23.521Z,45.56
2022-10-22T12:21:02.610Z,45.80
2022-10-22T12:23:52.420Z,45.85
2022-10-22T12:26:43.579Z,46.47
2022-10-22T12:29:33.999Z,46.19
2022-10-22T12:32:22.512Z,45.09
2022-10-22T12:35:17.892Z,44.92
2022-10-22T12:38:12.832Z,45.52
2022-10-22T12:41:01.225Z,44.92
2022-10-22T12:43:49.660Z,45.19
2022-10-22T12:46:38.049Z,44.79
2022-10-22T12:49:29.705Z,45.19
2022-10-22T12:52:22.721Z,45.19
2022-10-22T12:55:17.444Z,44.99
2022-10-22T12:58:07.347Z,44.48
2022-10-22T13:00:58.420Z,44.89
2022-10-22T13:03:49.901Z,44.68
2022-10-22T13:06:38.350Z,44.71
2022-10-22T13:09:30.157Z,44.43
2022-10-22T13:12:26.011Z,44.18
2022-10-22T13:15:23.683Z,43.86
2022-10-22T13:18:21.047Z,43.43
2022-10-22T13:21:24.851Z,42.96
2022-10-22T13:24:22.792Z,43.14
2022-10-22T13:27:12.654Z,43.16
2022-10-22T13:30:05.054Z,43.48
2022-10-22T13:32:55.242Z,43.60
2022-10-22T13:35:43.668Z,43.57
2022-10-22T13:38:32.163Z,43.29
2022-10-22T13:41:22.700Z,43.36
2022-10-22T13:44:12.558Z,43.39
2022-10-22T13:47:00.953Z,43.19
2022-10-22T13:49:49.465Z,43.40
2022-10-22T13:52:41.111Z,43.15
2022-10-22T13:55:31.222Z,43.54
2022-10-22T13:58:21.869Z,43.79
2022-10-22T14:01:20.472Z,44.05
2022-10-22T14:04:12.590Z,44.08
2022-10-22T14:07:03.841Z,44.01
2022-10-22T14:09:52.568Z,44.36
2022-10-22T14:12:41.067Z,43.30
2022-10-22T14:15:30.406Z,43.01
2022-10-22T14:18:25.552Z,42.97
2022-10-22T14:21:15.689Z,42.80
2022-10-22T14:24:06.081Z,42.17
2022-10-22T14:26:56.716Z,42.53
2022-10-22T14:29:45.331Z,42.12
2022-10-22T14:32:33.809Z,41.82
2022-10-22T14:35:24.384Z,42.76
2022-10-22T14:38:12.844Z,42.40
2022-10-22T14:41:03.909Z,42.24
2022-10-22T14:43:54.882Z,41.76
2022-10-22T14:46:44.185Z,42.17
2022-10-22T14:49:33.426Z,41.95
2022-10-22T14:52:23.204Z,41.88
2022-10-22T14:55:12.276Z,42.30
2022-10-22T14:58:02.027Z,41.78
2022-10-22T15:00:50.553Z,41.24
2022-10-22T15:03:39.157Z,41.44
2022-10-22T15:06:27.778Z,41.39
2022-10-22T15:09:17.605Z,41.83
2022-10-22T15:12:06.289Z,41.56
2022-10-22T15:14:54.692Z,41.30
2022-10-22T15:17:43.645Z,41.19
2022-10-22T15:20:32.238Z,41.58
2022-10-22T15:23:20.638Z,42.24
2022-10-22T15:26:11.220Z,42.24
2022-10-22T15:29:00.116Z,42.56
2022-10-22T15:31:51.531Z,42.67
2022-10-22T15:34:41.177Z,42.25
2022-10-22T15:37:30.794Z,42.17
2022-10-22T15:40:19.370Z,42.07
2022-10-22T15:43:09.298Z,41.89
2022-10-22T15:46:11.904Z,41.93
2022-10-22T15:49:00.367Z,41.71
2022-10-22T15:51:49.337Z,42.04
2022-10-22T15:54:37.898Z,42.01
2022-10-22T15:57:26.789Z,41.90
2022-10-22T16:00:17.386Z,41.78
2022-10-22T16:03:05.876Z,41.48
2022-10-22T16:05:54.566Z,41.83
2022-10-22T16:08:43.014Z,42.36
2022-10-22T16:11:32.344Z,42.32
2022-10-22T16:14:23.244Z,42.94
2022-10-22T16:17:14.237Z,43.20
2022-10-22T16:20:02.728Z,43.20
2022-10-22T16:22:51.619Z,43.13
2022-10-22T16:25:40.294Z,43.74
2022-10-22T16:28:29.967Z,44.54
2022-10-22T16:31:19.901Z,45.10
2022-10-22T16:34:09.969Z,44.49
2022-10-22T16:36:58.493Z,44.56
2022-10-22T16:39:47.722Z,44.25
2022-10-22T16:42:36.533Z,43.65
2022-10-22T16:45:25.010Z,43.89
2022-10-22T16:48:13.431Z,43.58
2022-10-22T16:51:07.611Z,43.96
2022-10-22T16:53:57.279Z,44.87
2022-10-22T16:56:45.941Z,45.63
2022-10-22T16:59:37.721Z,45.64
2022-10-22T17:02:26.390Z,46.00
2022-10-22T17:05:14.795Z,46.17
2022-10-22T17:08:04.605Z,45.88
2022-10-22T17:10:55.919Z,45.88
2022-10-22T17:13:44.885Z,46.00
2022-10-22T17:16:33.370Z,45.36
2022-10-22T17:19:22.713Z,45.48
2022-10-22T17:22:14.806Z,45.12
2022-10-22T17:25:15.723Z,45.05
2022-10-22T17:28:04.159Z,45.05
2022-10-22T17:30:52.783Z,44.88
2022-10-22T17:33:41.193Z,44.82
2022-10-22T17:36:33.243Z,45.22
2022-10-22T17:39:24.199Z,44.54
2022-10-22T17:42:14.190Z,43.57
2022-10-22T17:45:02.718Z,43.26
2022-10-22T17:47:52.049Z,43.10
2022-10-22T17:50:45.734Z,43.22
2022-10-22T17:53:35.482Z,42.78
2022-10-22T17:56:28.013Z,42.85
2022-10-22T17:59:19.042Z,42.56
2022-10-22T18:02:07.475Z,42.71
2022-10-22T18:04:55.964Z,42.52
2022-10-22T18:07:44.391Z,42.75
2022-10-22T18:10:32.991Z,42.71
2022-10-22T18:13:21.757Z,43.41
2022-10-22T18:16:15.510Z,43.78
2022-10-22T18:19:04.278Z,44.33
2022-10-22T18:21:52.909Z,44.25
2022-10-22T18:24:41.479Z,44.46
2022-10-22T18:27:29.969Z,44.54
2022-10-22T18:30:18.428Z,44.52
2022-10-22T18:33:08.275Z,44.74
2022-10-22T18:35:56.930Z,45.02
2022-10-22T18:38:45.395Z,45.17
2022-10-22T18:41:35.876Z,45.13
2022-10-22T18:44:24.801Z,45.15
2022-10-22T18:47:13.226Z,45.41
2022-10-22T18:50:03.278Z,45.53
2022-10-22T18:52:51.746Z,45.57
2022-10-22T18:55:41.753Z,45.39
2022-10-22T18:58:30.168Z,45.46
2022-10-22T19:01:20.472Z,45.33
2022-10-22T19:04:08.957Z,45.24
2022-10-22T19:06:59.579Z,45.33
2022-10-22T19:09:48.045Z,45.37
2022-10-22T19:12:37.110Z,45.44
2022-10-22T19:15:25.569Z,45.06
2022-10-22T19:18:17.303Z,45.15
2022-10-22T19:21:06.622Z,45.00
2022-10-22T19:23:58.050Z,45.01
2022-10-22T19:26:48.005Z,45.13
2022-10-22T19:29:36.588Z,45.09
2022-10-22T19:32:27.503Z,45.21
2022-10-22T19:35:19.671Z,44.82
2022-10-22T19:38:08.092Z,45.07
2022-10-22T19:40:57.984Z,45.16
2022-10-22T19:43:49.545Z,44.75
2022-10-22T19:46:38.129Z,44.86
2022-10-22T19:49:26.952Z,44.51
2022-10-22T19:52:15.594Z,44.77
2022-10-22T19:55:04.273Z,45.52
2022-10-22T19:57:54.113Z,45.42
2022-10-22T20:00:42.709Z,45.20
2022-10-22T20:03:31.259Z,45.07
2022-10-22T20:06:21.727Z,45.44
2022-10-22T20:09:11.031Z,45.38
2022-10-22T20:11:59.516Z,45.69
2022-10-22T20:14:49.299Z,45.50
2022-10-22T20:17:41.047Z,45.69
2022-10-22T20:20:29.638Z,45.30
2022-10-22T20:23:18.215Z,45.58
2022-10-22T20:26:08.796Z,45.23
2022-10-22T20:28:57.801Z,45.08
2022-10-22T20:31:47.989Z,45.36
2022-10-22T20:34:36.821Z,45.04
2022-10-22T20:37:25.177Z,45.26
2022-10-22T20:40:14.607Z,45.35
2022-10-22T20:43:03.268Z,45.15
2022-10-22T20:45:51.696Z,45.30
2022-10-22T20:48:41.451Z,44.59
2022-10-22T20:51:29.945Z,44.58
2022-10-22T20:54:21.445Z,44.59
2022-10-22T20:57:10.071Z,44.47
2022-10-22T20:59:58.937Z,44.44
2022-10-22T21:02:47.313Z,44.46
2022-10-22T21:05:40.035Z,44.35
2022-10-22T21:08:28.463Z,44.34
2022-10-22T21:11:17.087Z,44.59
2022-10-22T21:14:06.109Z,44.85
2022-10-22T21:16:54.497Z,44.38
2022-10-22T21:19:43.194Z,44.47
2022-10-22T21:22:33.048Z,44.89
2022-10-22T21:25:21.574Z,43.90
2022-10-22T21:28:10.002Z,43.88
2022-10-22T21:30:58.430Z,44.16
2022-10-22T21:33:46.890Z,44.33
2022-10-22T21:36:36.839Z,44.33
2022-10-22T21:39:26.718Z,44.30
2022-10-22T21:42:19.975Z,44.68
2022-10-22T21:45:12.418Z,44.89
2022-10-22T21:48:03.278Z,44.76
2022-10-22T21:50:51.682Z,44.63
2022-10-22T21:53:40.269Z,44.35
2022-10-22T21:56:33.403Z,44.72
2022-10-22T21:59:21.906Z,44.22
2022-10-22T22:02:10.833Z,44.52
2022-10-22T22:04:59.301Z,45.13
2022-10-22T22:07:47.903Z,44.45
2022-10-22T22:10:36.526Z,44.58
2022-10-22T22:13:27.100Z,44.14
2022-10-22T22:16:17.296Z,44.70
2022-10-22T22:19:08.467Z,44.02
2022-10-22T22:21:58.269Z,43.84
2022-10-22T22:24:47.170Z,43.80
2022-10-22T22:27:39.817Z,43.53
2022-10-22T22:30:31.009Z,43.64
2022-10-22T22:33:19.459Z,43.51
2022-10-22T22:36:08.446Z,43.57
2022-10-22T22:38:57.198Z,43.17
2022-10-22T22:41:46.222Z,42.92
2022-10-22T22:44:34.732Z,42.96
2022-10-22T22:47:24.622Z,43.13
2022-10-22T22:50:13.177Z,43.07
2022-10-22T22:53:01.621Z,43.10
2022-10-22T22:55:50.264Z,43.26
2022-10-22T22:58:40.422Z,43.15
2022-10-22T23:01:30.268Z,43.13
2022-10-22T23:04:23.633Z,43.22
2022-10-22T23:07:12.200Z,43.15
2022-10-22T23:10:00.665Z,43.06
2022-10-22T23:12:49.063Z,43.16
2022-10-22T23:15:41.146Z,43.25
2022-10-22T23:18:29.547Z,43.09
2022-10-22T23:21:20.577Z,43.12
2022-10-22T23:24:10.393Z,43.22
2022-10-22T23:27:01.916Z,43.13
2022-10-22T23:29:50.376Z,42.90
2022-10-22T23:32:38.817Z,43.09
2022-10-22T23:35:27.263Z,43.03
2022-10-22T23:38:17.091Z,43.17
2022-10-22T23:41:06.185Z,43.11
2022-10-22T23:43:54.753Z,43.27
2022-10-22T23:46:43.499Z,43.50
2022-10-22T23:49:31.938Z,43.31
2022-10-22T23:52:20.392Z,43.25
2022-10-22T23:55:10.842Z,43.42
2022-10-22T23:57:59.304Z,43.08
